Rio Blanco, Puerto Rico
Current Conditions -  °F | °C
As of 7:53 AM on Saturday 20 Dec 2014 (Local Time) from TJNR Reporting Station
Clear Clear  
Wind Chill: 79°   Ceiling: Unl
Heat Index: 82°   Visibility: 10mi
Dew Point: 70°   Wind: 6mph
Humidity: 74%   Direction: 70°ENE
Pressure: 30.04"   Gusts: NA
Location:  18.21°N, 65.79°W
Report Text: TJNR 201153Z AUTO 07005KT 10SM CLR 26/21 A3004 RMK AO2 SLP173 T02610211 10261 20222 53019 $
Loading
Personal Weather Stations






























Interactive Weather Map New forecast layout! Learn more

10-Day Weather Forecast

Advertisements
Track Severe Weather on mobile